createdAt,value
2018-07-05T00:00:25.181Z,5.90
2018-07-05T00:03:11.595Z,6.00
2018-07-05T00:05:57.787Z,5.70
2018-07-05T00:08:44.273Z,5.90
2018-07-05T00:11:30.465Z,6.50
2018-07-05T00:14:16.650Z,7.30
2018-07-05T00:17:03.221Z,7.50
2018-07-05T00:19:49.677Z,7.03
2018-07-05T00:22:35.951Z,8.20
2018-07-05T00:25:22.289Z,7.40
2018-07-05T00:28:08.624Z,7.27
2018-07-05T00:30:54.948Z,6.50
2018-07-05T00:33:41.510Z,6.30
2018-07-05T00:36:28.032Z,6.73
2018-07-05T00:39:14.268Z,7.00
2018-07-05T00:42:00.778Z,7.20
2018-07-05T00:44:47.139Z,7.07
2018-07-05T00:47:27.387Z,6.90
2018-07-05T00:50:13.720Z,7.23
2018-07-05T00:53:00.167Z,6.13
2018-07-05T00:55:46.654Z,6.60
2018-07-05T00:58:33.065Z,7.37
2018-07-05T01:01:19.359Z,5.90
2018-07-05T01:04:05.558Z,6.47
2018-07-05T01:06:52.040Z,6.97
2018-07-05T01:09:38.318Z,6.37
2018-07-05T01:12:24.621Z,6.23
2018-07-05T01:15:11.205Z,6.80
2018-07-05T01:17:57.365Z,5.77
2018-07-05T01:20:43.721Z,5.83
2018-07-05T01:23:30.247Z,6.27
2018-07-05T01:26:16.751Z,6.37
2018-07-05T01:29:03.160Z,7.50
2018-07-05T01:31:49.450Z,7.50
2018-07-05T01:34:35.813Z,6.97
2018-07-05T01:37:22.206Z,6.20
2018-07-05T01:40:08.424Z,5.67
2018-07-05T01:42:54.918Z,6.17
2018-07-05T01:45:41.299Z,6.50
2018-07-05T01:48:27.773Z,5.97
2018-07-05T01:51:14.293Z,7.17
2018-07-05T01:54:00.437Z,6.90
2018-07-05T01:56:46.881Z,6.40
2018-07-05T01:59:33.065Z,6.50
2018-07-05T02:02:19.634Z,6.33
2018-07-05T02:05:06.036Z,7.40
2018-07-05T02:07:52.258Z,6.03
2018-07-05T02:10:38.738Z,7.23
2018-07-05T02:13:25.504Z,6.97
2018-07-05T02:16:11.955Z,6.13
2018-07-05T02:18:58.319Z,6.70
2018-07-05T02:21:44.690Z,6.90
2018-07-05T02:24:31.048Z,7.47
2018-07-05T02:27:17.422Z,7.10
2018-07-05T02:30:03.901Z,8.57
2018-07-05T02:32:50.363Z,7.33
2018-07-05T02:35:36.849Z,7.63
2018-07-05T02:38:23.500Z,6.90
2018-07-05T02:41:09.707Z,6.00
2018-07-05T02:43:56.025Z,6.37
2018-07-05T02:46:42.458Z,6.73
2018-07-05T02:49:28.617Z,7.77
2018-07-05T02:52:15.196Z,7.70
2018-07-05T02:55:01.492Z,8.23
2018-07-05T02:57:47.912Z,6.63
2018-07-05T03:00:34.086Z,9.20
2018-07-05T03:03:20.339Z,7.23
2018-07-05T03:06:06.996Z,6.67
2018-07-05T03:08:53.247Z,8.17
2018-07-05T03:11:39.369Z,7.00
2018-07-05T03:14:25.564Z,6.20
2018-07-05T03:17:12.071Z,6.90
2018-07-05T03:19:58.425Z,6.63
2018-07-05T03:22:44.853Z,6.60
2018-07-05T03:25:31.297Z,6.67
2018-07-05T03:28:17.659Z,5.77
2018-07-05T03:31:03.919Z,7.50
2018-07-05T03:33:50.360Z,6.33
2018-07-05T03:36:36.638Z,6.60
2018-07-05T03:39:23.082Z,6.90
2018-07-05T03:42:09.502Z,6.87
2018-07-05T03:44:55.958Z,6.47
2018-07-05T03:47:42.179Z,7.17
2018-07-05T03:50:28.311Z,6.93
2018-07-05T03:53:14.622Z,5.63
2018-07-05T03:56:00.973Z,7.13
2018-07-05T03:58:47.387Z,6.67
2018-07-05T04:01:33.796Z,6.60
2018-07-05T04:04:20.535Z,6.00
2018-07-05T04:07:06.923Z,6.23
2018-07-05T04:09:53.384Z,5.93
2018-07-05T04:12:39.841Z,6.10
2018-07-05T04:15:26.338Z,6.53
2018-07-05T04:18:12.735Z,6.33
2018-07-05T04:20:59.129Z,5.17
2018-07-05T04:23:45.504Z,6.13
2018-07-05T04:26:31.929Z,6.57
2018-07-05T04:29:18.388Z,6.70
2018-07-05T04:32:04.774Z,6.10
2018-07-05T04:34:51.154Z,5.40
2018-07-05T04:37:37.664Z,5.33
2018-07-05T04:40:23.785Z,5.07
2018-07-05T04:43:10.281Z,4.90
2018-07-05T04:45:56.530Z,5.70
2018-07-05T04:48:42.888Z,5.10
2018-07-05T04:51:29.599Z,5.93
2018-07-05T04:54:16.029Z,4.97
2018-07-05T04:57:02.413Z,5.40
2018-07-05T04:59:48.910Z,5.23
2018-07-05T05:02:35.199Z,5.10
2018-07-05T05:05:21.774Z,5.97
2018-07-05T05:08:08.146Z,6.57
2018-07-05T05:10:54.645Z,6.63
2018-07-05T05:13:40.999Z,6.17
2018-07-05T05:16:27.476Z,6.03
2018-07-05T05:19:13.930Z,5.07
2018-07-05T05:22:00.381Z,6.10
2018-07-05T05:24:46.761Z,5.37
2018-07-05T05:27:33.316Z,4.90
2018-07-05T05:30:19.751Z,5.50
2018-07-05T05:33:06.293Z,5.70
2018-07-05T05:35:52.705Z,4.73
2018-07-05T05:38:39.131Z,5.77
2018-07-05T05:41:25.543Z,4.77
2018-07-05T05:44:12.047Z,4.90
2018-07-05T05:46:59.302Z,6.03
2018-07-05T05:49:45.721Z,5.43
2018-07-05T05:52:31.985Z,5.90
2018-07-05T05:55:18.335Z,5.90
2018-07-05T05:58:04.640Z,5.30
2018-07-05T06:00:51.093Z,5.07
2018-07-05T06:03:37.552Z,5.40
2018-07-05T06:06:23.999Z,5.90
2018-07-05T06:09:10.529Z,5.40
2018-07-05T06:11:57.031Z,5.73
2018-07-05T06:14:43.117Z,5.50
2018-07-05T06:17:23.610Z,5.37
2018-07-05T06:20:09.782Z,4.47
2018-07-05T06:22:56.006Z,6.00
2018-07-05T06:25:42.477Z,5.77
2018-07-05T06:28:28.701Z,5.00
2018-07-05T06:31:15.026Z,4.73
2018-07-05T06:34:01.508Z,4.97
2018-07-05T06:36:47.888Z,5.63
2018-07-05T06:39:34.270Z,4.87
2018-07-05T06:42:20.586Z,4.30
2018-07-05T06:45:06.909Z,5.60
2018-07-05T06:47:53.293Z,4.30
2018-07-05T06:50:39.601Z,6.10
2018-07-05T06:53:26.045Z,6.23
2018-07-05T06:56:12.319Z,5.10
2018-07-05T06:58:58.814Z,4.40
2018-07-05T07:01:45.085Z,6.63
2018-07-05T07:04:31.523Z,4.53
2018-07-05T07:07:17.977Z,4.83
2018-07-05T07:10:04.302Z,4.90
2018-07-05T07:12:50.741Z,4.70
2018-07-05T07:15:37.298Z,4.97
2018-07-05T07:18:23.665Z,4.80
2018-07-05T07:21:10.089Z,4.20
2018-07-05T07:23:56.386Z,4.80
2018-07-05T07:26:42.785Z,4.30
2018-07-05T07:29:29.163Z,3.60
2018-07-05T07:32:15.563Z,4.50
2018-07-05T07:35:01.882Z,4.27
2018-07-05T07:37:48.331Z,4.53
2018-07-05T07:40:34.525Z,3.73
2018-07-05T07:43:02.173Z,3.87
2018-07-05T07:45:29.871Z,3.80
2018-07-05T07:47:57.553Z,10.07
2018-07-05T07:50:25.222Z,8.00
2018-07-05T07:52:52.882Z,4.03
2018-07-05T07:55:20.526Z,5.83
2018-07-05T07:57:48.177Z,4.07
2018-07-05T08:00:15.837Z,4.77
2018-07-05T08:02:43.470Z,3.80
2018-07-05T08:05:11.071Z,3.63
2018-07-05T08:07:38.730Z,3.30
2018-07-05T08:10:06.403Z,3.37
2018-07-05T08:12:34.038Z,3.83
2018-07-05T08:15:03.731Z,4.10
2018-07-05T08:17:31.364Z,4.13
2018-07-05T08:19:58.985Z,3.40
2018-07-05T08:22:26.938Z,3.47
2018-07-05T08:24:54.548Z,3.67
2018-07-05T08:27:22.165Z,4.27
2018-07-05T08:29:49.806Z,3.50
2018-07-05T08:32:17.444Z,3.63
2018-07-05T08:34:45.070Z,3.50
2018-07-05T08:37:12.907Z,3.00
2018-07-05T08:39:40.530Z,3.83
2018-07-05T08:42:08.173Z,3.43
2018-07-05T08:44:35.830Z,3.03
2018-07-05T08:47:03.465Z,3.73
2018-07-05T08:49:31.080Z,3.43
2018-07-05T08:51:58.714Z,3.60
2018-07-05T08:54:26.373Z,3.33
2018-07-05T08:56:53.981Z,4.17
2018-07-05T08:59:21.647Z,3.17
2018-07-05T09:01:49.290Z,3.70
2018-07-05T09:04:16.926Z,3.10
2018-07-05T09:06:44.608Z,3.40
2018-07-05T09:09:12.246Z,3.57
2018-07-05T09:11:39.894Z,3.80
2018-07-05T09:14:07.505Z,3.80
2018-07-05T09:16:35.141Z,3.50
2018-07-05T09:19:02.770Z,3.13
2018-07-05T09:21:30.412Z,4.10
2018-07-05T09:23:58.343Z,3.10
2018-07-05T09:26:26.023Z,4.60
2018-07-05T09:28:53.979Z,4.30
2018-07-05T09:31:21.643Z,4.73
2018-07-05T09:33:49.343Z,3.50
2018-07-05T09:36:16.978Z,3.53
2018-07-05T09:38:44.634Z,3.30
2018-07-05T09:41:12.304Z,3.30
2018-07-05T09:43:39.965Z,3.77
2018-07-05T09:46:07.728Z,3.70
2018-07-05T09:48:35.405Z,3.50
2018-07-05T09:51:03.022Z,4.03
2018-07-05T09:53:30.714Z,3.10
2018-07-05T09:55:58.356Z,3.47
2018-07-05T09:58:26.045Z,3.13
2018-07-05T10:00:53.794Z,3.73
2018-07-05T10:03:22.496Z,4.17
2018-07-05T10:05:50.167Z,3.80
2018-07-05T10:08:18.720Z,4.00
2018-07-05T10:10:46.361Z,3.70
2018-07-05T10:13:14.061Z,3.10
2018-07-05T10:15:41.687Z,3.80
2018-07-05T10:18:09.293Z,3.13
2018-07-05T10:20:36.937Z,3.80
2018-07-05T10:23:04.595Z,4.77
2018-07-05T10:25:32.291Z,3.63
2018-07-05T10:27:59.894Z,3.57
2018-07-05T10:30:46.353Z,3.40
2018-07-05T10:33:32.789Z,4.60
2018-07-05T10:36:00.438Z,3.50
2018-07-05T10:38:28.086Z,3.23
2018-07-05T10:41:14.461Z,3.37
2018-07-05T10:44:00.892Z,3.40
2018-07-05T10:46:47.276Z,3.97
2018-07-05T10:49:33.638Z,3.63
2018-07-05T10:52:20.026Z,2.97
2018-07-05T10:55:06.273Z,3.67
2018-07-05T10:57:52.574Z,4.00
2018-07-05T11:00:38.941Z,3.30
2018-07-05T11:03:25.324Z,3.20
2018-07-05T11:06:11.714Z,2.83
2018-07-05T11:08:57.994Z,3.30
2018-07-05T11:11:44.441Z,3.77
2018-07-05T11:14:30.847Z,3.33
2018-07-05T11:17:17.161Z,3.17
2018-07-05T11:20:03.644Z,3.43
2018-07-05T11:22:50.095Z,3.17
2018-07-05T11:25:36.587Z,3.10
2018-07-05T11:28:23.340Z,3.10
2018-07-05T11:31:09.561Z,3.10
2018-07-05T11:33:56.034Z,3.07
2018-07-05T11:36:42.329Z,3.20
2018-07-05T11:39:28.785Z,3.10
2018-07-05T11:42:15.090Z,2.80
2018-07-05T11:45:01.539Z,1.90
2018-07-05T11:47:48.049Z,2.80
2018-07-05T11:50:34.422Z,2.43
2018-07-05T11:53:20.738Z,2.43
2018-07-05T11:56:07.442Z,2.50
2018-07-05T11:58:53.734Z,2.70
2018-07-05T12:01:40.165Z,2.23
2018-07-05T12:04:26.661Z,2.40
2018-07-05T12:07:13.070Z,2.47
2018-07-05T12:09:59.464Z,2.33
2018-07-05T12:12:45.873Z,2.30
2018-07-05T12:15:32.249Z,2.17
2018-07-05T12:18:18.729Z,2.00
2018-07-05T12:21:05.030Z,2.33
2018-07-05T12:23:51.891Z,2.47
2018-07-05T12:26:38.283Z,2.10
2018-07-05T12:29:24.694Z,2.37
2018-07-05T12:32:10.874Z,2.30
2018-07-05T12:34:57.402Z,1.80
2018-07-05T12:37:43.860Z,1.80
2018-07-05T12:40:30.059Z,2.20
2018-07-05T12:43:16.473Z,2.00
2018-07-05T12:46:02.974Z,2.43
2018-07-05T12:48:49.332Z,1.77
2018-07-05T12:51:35.627Z,2.20
2018-07-05T12:54:21.868Z,2.43
2018-07-05T12:57:08.081Z,1.80
2018-07-05T12:59:54.520Z,2.15
2018-07-05T13:02:40.941Z,3.20
2018-07-05T13:05:27.286Z,2.00
2018-07-05T13:08:13.632Z,1.77
2018-07-05T13:10:59.943Z,2.25
2018-07-05T13:13:46.330Z,2.00
2018-07-05T13:16:32.594Z,1.80
2018-07-05T13:19:18.957Z,1.90
2018-07-05T13:22:05.474Z,1.62
2018-07-05T13:24:51.899Z,2.25
2018-07-05T13:27:38.518Z,1.82
2018-07-05T13:30:24.774Z,2.12
2018-07-05T13:33:11.326Z,1.90
2018-07-05T13:35:57.774Z,2.10
2018-07-05T13:38:44.044Z,2.00
2018-07-05T13:41:30.526Z,2.35
2018-07-05T13:44:16.962Z,1.67
2018-07-05T13:47:03.275Z,1.65
2018-07-05T13:49:49.446Z,1.85
2018-07-05T13:52:35.857Z,2.60
2018-07-05T13:55:22.284Z,2.67
2018-07-05T13:58:08.677Z,2.43
2018-07-05T14:00:55.123Z,2.87
2018-07-05T14:03:41.472Z,2.63
2018-07-05T14:06:27.882Z,2.33
2018-07-05T14:09:14.382Z,2.60
2018-07-05T14:12:00.771Z,2.30
2018-07-05T14:14:47.253Z,2.30
2018-07-05T14:17:33.818Z,2.27
2018-07-05T14:20:20.070Z,3.27
2018-07-05T14:23:06.482Z,2.63
2018-07-05T14:25:53.182Z,2.13
2018-07-05T14:28:39.626Z,2.30
2018-07-05T14:31:26.199Z,2.77
2018-07-05T14:34:12.599Z,2.00
2018-07-05T14:36:59.033Z,2.40
2018-07-05T14:39:45.559Z,2.33
2018-07-05T14:42:31.887Z,2.20
2018-07-05T14:45:18.142Z,2.20
2018-07-05T14:48:04.529Z,2.40
2018-07-05T14:50:51.081Z,2.10
2018-07-05T14:53:37.535Z,2.43
2018-07-05T14:56:24.030Z,2.20
2018-07-05T14:59:10.635Z,2.33
2018-07-05T15:01:56.994Z,3.13
2018-07-05T15:04:43.259Z,2.73
2018-07-05T15:07:29.467Z,3.17
2018-07-05T15:10:15.941Z,9.10
2018-07-05T15:13:02.295Z,3.10
2018-07-05T15:15:48.711Z,2.20
2018-07-05T15:18:35.295Z,2.60
2018-07-05T15:21:21.604Z,2.10
2018-07-05T15:24:08.111Z,2.23
2018-07-05T15:26:54.526Z,2.10
2018-07-05T15:29:40.893Z,2.17
2018-07-05T15:32:27.348Z,2.00
2018-07-05T15:35:13.582Z,1.70
2018-07-05T15:37:59.865Z,1.95
2018-07-05T15:40:46.284Z,1.98
2018-07-05T15:43:32.747Z,1.77
2018-07-05T15:46:19.010Z,1.92
2018-07-05T15:49:05.304Z,2.30
2018-07-05T15:51:51.659Z,1.92
2018-07-05T15:54:38.095Z,1.80
2018-07-05T15:57:24.373Z,2.00
2018-07-05T16:00:10.801Z,1.90
2018-07-05T16:02:57.080Z,2.60
2018-07-05T16:05:43.575Z,2.20
2018-07-05T16:08:30.142Z,1.90
2018-07-05T16:11:16.409Z,2.10
2018-07-05T16:14:02.914Z,2.00
2018-07-05T16:16:49.236Z,1.77
2018-07-05T16:19:35.779Z,1.97
2018-07-05T16:22:22.079Z,2.00
2018-07-05T16:25:08.379Z,2.10
2018-07-05T16:27:54.779Z,2.03
2018-07-05T16:30:41.551Z,1.90
2018-07-05T16:33:27.843Z,2.00
2018-07-05T16:36:14.002Z,2.07
2018-07-05T16:39:00.458Z,1.90
2018-07-05T16:41:46.942Z,2.00
2018-07-05T16:44:33.196Z,2.20
2018-07-05T16:47:19.602Z,2.20
2018-07-05T16:50:05.961Z,2.40
2018-07-05T16:52:52.472Z,1.90
2018-07-05T16:55:38.950Z,2.00
2018-07-05T16:58:25.101Z,2.40
2018-07-05T17:01:11.485Z,2.57
2018-07-05T17:03:58.010Z,2.50
2018-07-05T17:06:44.539Z,2.33
2018-07-05T17:09:30.686Z,2.70
2018-07-05T17:12:16.957Z,2.60
2018-07-05T17:15:03.439Z,2.67
2018-07-05T17:17:50.031Z,2.33
2018-07-05T17:20:36.436Z,3.00
2018-07-05T17:23:22.786Z,3.20
2018-07-05T17:26:09.096Z,2.67
2018-07-05T17:28:55.486Z,2.60
2018-07-05T17:31:41.931Z,2.33
2018-07-05T17:34:28.401Z,1.93
2018-07-05T17:37:14.686Z,1.83
2018-07-05T17:40:01.376Z,2.10
2018-07-05T17:42:47.973Z,2.10
2018-07-05T17:45:34.290Z,2.53
2018-07-05T17:48:20.815Z,2.03
2018-07-05T17:51:07.252Z,2.27
2018-07-05T17:53:53.820Z,2.47
2018-07-05T17:56:40.275Z,2.13
2018-07-05T17:59:20.669Z,1.90
2018-07-05T18:02:07.001Z,2.40
2018-07-05T18:04:53.291Z,2.10
2018-07-05T18:07:39.934Z,1.97
2018-07-05T18:10:26.310Z,2.53
2018-07-05T18:13:12.606Z,2.43
2018-07-05T18:15:59.127Z,2.23
2018-07-05T18:18:45.372Z,2.60
2018-07-05T18:21:31.790Z,2.00
2018-07-05T18:24:12.129Z,2.70
2018-07-05T18:26:58.361Z,2.80
2018-07-05T18:29:44.733Z,3.17
2018-07-05T18:32:31.170Z,3.37
2018-07-05T18:35:17.525Z,4.23
2018-07-05T18:38:03.852Z,2.70
2018-07-05T18:40:50.335Z,2.87
2018-07-05T18:43:36.559Z,2.80
2018-07-05T18:46:22.881Z,4.00
2018-07-05T18:49:09.194Z,2.80
2018-07-05T18:51:55.646Z,3.23
2018-07-05T18:54:42.034Z,2.37
2018-07-05T18:57:28.354Z,4.00
2018-07-05T19:00:14.686Z,8.93
2018-07-05T19:03:00.894Z,5.70
2018-07-05T19:05:47.206Z,2.60
2018-07-05T19:08:33.658Z,2.90
2018-07-05T19:11:19.833Z,2.67
2018-07-05T19:14:06.249Z,2.90
2018-07-05T19:16:52.530Z,3.13
2018-07-05T19:19:38.856Z,4.23
2018-07-05T19:22:25.203Z,3.13
2018-07-05T19:25:11.486Z,3.40
2018-07-05T19:27:57.942Z,2.90
2018-07-05T19:30:44.167Z,3.13
2018-07-05T19:33:30.467Z,2.73
2018-07-05T19:36:16.808Z,2.90
2018-07-05T19:39:03.304Z,2.87
2018-07-05T19:41:49.733Z,3.40
2018-07-05T19:44:36.025Z,2.87
2018-07-05T19:47:22.342Z,6.30
2018-07-05T19:50:08.767Z,4.43
2018-07-05T19:52:55.125Z,3.10
2018-07-05T19:55:41.446Z,3.10
2018-07-05T19:58:27.918Z,3.90
2018-07-05T20:01:14.308Z,3.20
2018-07-05T20:04:00.655Z,3.93
2018-07-05T20:06:46.969Z,3.93
2018-07-05T20:09:33.388Z,3.10
2018-07-05T20:12:19.828Z,3.37
2018-07-05T20:15:06.128Z,3.60
2018-07-05T20:17:52.553Z,3.50
2018-07-05T20:20:38.876Z,3.23
2018-07-05T20:23:25.177Z,3.00
2018-07-05T20:26:11.627Z,3.63
2018-07-05T20:28:58.019Z,3.07
2018-07-05T20:31:44.381Z,3.17
2018-07-05T20:34:30.906Z,3.90
2018-07-05T20:37:17.228Z,3.37
2018-07-05T20:40:03.608Z,4.30
2018-07-05T20:42:50.004Z,3.70
2018-07-05T20:45:36.289Z,3.70
2018-07-05T20:48:22.713Z,2.90
2018-07-05T20:51:09.202Z,3.47
2018-07-05T20:53:55.493Z,4.03
2018-07-05T20:56:41.844Z,4.90
2018-07-05T20:59:28.173Z,4.00
2018-07-05T21:02:14.461Z,3.67
2018-07-05T21:05:00.856Z,3.47
2018-07-05T21:07:47.365Z,4.30
2018-07-05T21:10:33.655Z,4.50
2018-07-05T21:13:20.076Z,7.77
2018-07-05T21:16:06.503Z,8.07
2018-07-05T21:18:52.762Z,4.67
2018-07-05T21:21:39.217Z,5.10
2018-07-05T21:24:25.513Z,4.90
2018-07-05T21:27:11.873Z,6.70
2018-07-05T21:29:58.285Z,4.27
2018-07-05T21:32:44.753Z,4.73
2018-07-05T21:35:31.108Z,6.10
2018-07-05T21:38:12.484Z,5.13
2018-07-05T21:40:58.890Z,4.90
2018-07-05T21:43:45.274Z,4.23
2018-07-05T21:46:31.545Z,7.30
2018-07-05T21:49:17.904Z,5.00
2018-07-05T21:52:04.267Z,5.63
2018-07-05T21:54:50.750Z,4.90
2018-07-05T21:57:37.319Z,5.70
2018-07-05T22:00:23.555Z,4.57
2018-07-05T22:03:10.226Z,6.40
2018-07-05T22:05:56.452Z,5.20
2018-07-05T22:08:43.022Z,5.63
2018-07-05T22:11:29.273Z,7.30
2018-07-05T22:14:15.609Z,8.00
2018-07-05T22:17:07.258Z,7.40
2018-07-05T22:19:59.100Z,4.43
2018-07-05T22:22:50.912Z,4.80
2018-07-05T22:25:42.609Z,4.70
2018-07-05T22:29:37.117Z,4.27
2018-07-05T22:32:23.560Z,4.37
2018-07-05T22:35:09.776Z,4.10
2018-07-05T22:37:56.063Z,4.73
2018-07-05T22:40:42.434Z,4.53
2018-07-05T22:43:28.745Z,4.80
2018-07-05T22:46:15.121Z,4.37
2018-07-05T22:49:01.518Z,4.30
2018-07-05T22:51:47.834Z,3.80
2018-07-05T22:54:34.175Z,4.93
2018-07-05T22:57:20.477Z,4.13
2018-07-05T23:00:06.864Z,4.17
2018-07-05T23:02:53.233Z,4.30
2018-07-05T23:05:39.673Z,3.50
2018-07-05T23:08:26.084Z,4.37
2018-07-05T23:11:12.608Z,3.97
2018-07-05T23:13:58.702Z,3.70
2018-07-05T23:16:45.154Z,3.63
2018-07-05T23:19:31.558Z,3.80
2018-07-05T23:22:17.853Z,4.53
2018-07-05T23:25:05.650Z,4.40
2018-07-05T23:27:52.040Z,3.87
2018-07-05T23:30:38.257Z,3.97
2018-07-05T23:33:24.804Z,3.73
2018-07-05T23:36:11.088Z,3.90
2018-07-05T23:38:57.387Z,3.97
2018-07-05T23:41:43.733Z,3.97
2018-07-05T23:44:30.289Z,3.30
2018-07-05T23:47:16.679Z,4.20
2018-07-05T23:50:03.146Z,3.80
2018-07-05T23:52:49.569Z,3.87
2018-07-05T23:55:35.628Z,3.90
2018-07-05T23:58:22.102Z,4.17
